Time;durP1;ratioP1;P1;durP2;ratioP2;P2;SDS_P1;SDS_P2;PMS_P1;PMS_P2;Temp;Humidity;BMP_temperature;BMP_pressure;BME280_temperature;BME280_humidity;BME280_pressure;Samples;Min_cycle;Max_cycle;Signal;HPM_P1;HPM_P2
2021/09/22 00:00:22;;;;;;;9.00;3.70;;;;;;;10.36;66.95;99240.91;27220;1218;3048592;-67
2021/09/22 00:03:00;;;;;;;7.90;3.70;;;;;;;10.05;67.51;99239.14;27210;1217;3054387;-65
2021/09/22 00:05:29;;;;;;;8.90;3.80;;;;;;;9.91;67.88;99245.45;27186;1217;3026334;-69
2021/09/22 00:08:14;;;;;;;5.40;2.40;;;;;;;9.72;68.29;99245.15;27196;1217;3058501;-66
2021/09/22 00:11:03;;;;;;;4.30;2.70;;;;;;;9.50;69.34;99250.15;27202;1217;3052325;-67
2021/09/22 00:13:31;;;;;;;5.30;2.50;;;;;;;9.26;69.82;99241.61;27211;1218;3028327;-64
2021/09/22 00:16:21;;;;;;;3.30;1.80;;;;;;;9.25;70.40;99247.96;27261;1218;3056206;-66
2021/09/22 00:18:50;;;;;;;4.40;1.90;;;;;;;9.77;69.88;99245.19;27228;1217;3025903;-67
2021/09/22 00:21:39;;;;;;;5.80;2.30;;;;;;;10.07;68.60;99239.05;27198;1217;3052922;-67
2021/09/22 00:24:12;;;;;;;6.30;2.20;;;;;;;10.09;68.11;99236.27;27239;1217;3026093;-66
2021/09/22 00:26:41;;;;;;;2.70;1.90;;;;;;;9.93;68.46;99233.20;27223;1217;3027311;-66
2021/09/22 00:29:30;;;;;;;2.50;1.40;;;;;;;9.66;69.39;99234.36;27201;1218;3054955;-66
2021/09/22 00:32:01;;;;;;;5.20;1.90;;;;;;;9.58;68.96;99232.20;27208;1218;3026125;-67
2021/09/22 00:34:30;;;;;;;4.30;1.90;;;;;;;9.29;70.04;99227.63;27238;1216;3028498;-68
2021/09/22 00:37:21;;;;;;;4.60;2.30;;;;;;;8.98;71.83;99218.10;27265;1218;3052977;-67
2021/09/22 00:39:51;;;;;;;3.60;1.30;;;;;;;8.97;71.75;99220.24;27233;1218;3025745;-63
2021/09/22 00:42:20;;;;;;;3.50;1.80;;;;;;;9.62;70.89;99216.94;27200;1209;3026304;-67
2021/09/22 00:44:56;;;;;;;3.60;2.00;;;;;;;10.12;69.00;99221.23;27316;1217;3049241;-65
2021/09/22 00:47:26;;;;;;;4.30;1.90;;;;;;;10.08;68.37;99223.38;27323;1217;3026264;-67
2021/09/22 00:49:56;;;;;;;4.30;2.20;;;;;;;9.87;68.88;99222.21;27248;1217;3025979;-70
2021/09/22 00:52:25;;;;;;;4.30;2.10;;;;;;;9.77;69.03;99223.89;27214;1218;3026342;-65
2021/09/22 00:54:54;;;;;;;4.70;2.30;;;;;;;9.42;70.15;99220.24;27243;1218;3051251;-65
2021/09/22 00:57:23;;;;;;;4.50;2.50;;;;;;;9.25;70.97;99220.36;27246;1217;3028420;-65
2021/09/22 00:59:53;;;;;;;4.00;1.90;;;;;;;9.17;71.59;99215.55;27232;1217;3049235;-68
2021/09/22 01:02:23;;;;;;;6.90;2.30;;;;;;;9.79;70.38;99215.92;27205;1217;3026176;-70
2021/09/22 01:04:52;;;;;;;3.30;1.90;;;;;;;10.06;69.62;99219.86;27202;1217;3026349;-65
2021/09/22 01:07:21;;;;;;;2.50;1.80;;;;;;;9.99;69.33;99216.75;27201;1217;3048438;-66
2021/09/22 01:09:49;;;;;;;3.00;2.20;;;;;;;9.88;69.31;99214.50;27234;1217;3026508;-65
2021/09/22 01:12:38;;;;;;;3.90;1.60;;;;;;;9.54;70.54;99220.58;27223;1217;3071329;-68
2021/09/22 01:15:33;;;;;;;2.80;1.90;;;;;;;9.28;71.58;99218.27;27184;1218;3026110;-64
2021/09/22 01:18:02;;;;;;;2.10;1.60;;;;;;;9.16;72.10;99212.30;27236;1217;3052449;-64
2021/09/22 01:20:34;;;;;;;3.10;1.50;;;;;;;9.06;72.87;99216.95;27242;1217;3026215;-68
2021/09/22 01:23:24;;;;;;;3.30;1.60;;;;;;;9.46;72.29;99216.11;27227;1217;3056189;-65
2021/09/22 01:25:54;;;;;;;3.00;2.00;;;;;;;9.98;70.37;99214.20;27232;1218;3026514;-66
2021/09/22 01:28:26;;;;;;;2.30;1.60;;;;;;;9.91;69.97;99212.71;27279;1217;3025814;-64
2021/09/22 01:30:59;;;;;;;4.30;1.80;;;;;;;9.88;70.00;99212.70;27194;1217;3027009;-66
2021/09/22 01:33:28;;;;;;;3.20;1.90;;;;;;;9.38;71.45;99214.36;27191;1217;3027927;-62
2021/09/22 01:36:13;;;;;;;3.30;1.90;;;;;;;9.10;72.48;99210.92;27250;1217;3048435;-72
2021/09/22 01:38:43;;;;;;;3.70;2.10;;;;;;;9.05;72.15;99208.44;27263;1217;3026483;-69
2021/09/22 01:41:16;;;;;;;1.90;1.30;;;;;;;8.93;73.10;99206.33;27240;1218;3050994;-69
2021/09/22 01:43:54;;;;;;;3.50;1.30;;;;;;;9.44;72.12;99201.05;27245;1217;3057866;-70
2021/09/22 01:46:26;;;;;;;3.40;1.60;;;;;;;9.66;71.13;99197.11;27244;1218;3026058;-62
2021/09/22 01:49:00;;;;;;;2.30;1.30;;;;;;;9.45;71.59;99196.63;27435;1218;3055129;-65
2021/09/22 01:51:29;;;;;;;2.40;1.60;;;;;;;9.49;70.90;99196.01;27293;1218;3026257;-73
2021/09/22 01:54:15;;;;;;;3.30;1.40;;;;;;;9.26;71.57;99196.88;27223;1217;3051654;-65
2021/09/22 01:56:57;;;;;;;2.30;1.70;;;;;;;9.00;72.30;99191.59;27239;1217;3054561;-68
2021/09/22 01:59:26;;;;;;;2.00;1.30;;;;;;;8.88;73.18;99197.72;27208;1218;3027698;-67
2021/09/22 02:02:16;;;;;;;4.20;1.40;;;;;;;9.50;71.72;99200.35;27225;1218;3068371;-66
2021/09/22 02:05:15;;;;;;;5.20;1.70;;;;;;;9.61;71.03;99199.13;27222;1217;3051937;-63
2021/09/22 02:07:46;;;;;;;3.00;1.80;;;;;;;9.36;71.70;99197.00;27250;1217;3026370;-62
2021/09/22 02:10:17;;;;;;;4.20;2.10;;;;;;;9.28;72.02;99205.13;27225;1218;3026158;-67
2021/09/22 02:13:06;;;;;;;2.80;1.90;;;;;;;9.14;72.18;99205.48;27201;1218;3056162;-64
2021/09/22 02:15:35;;;;;;;3.90;2.40;;;;;;;9.10;71.88;99202.70;27206;1217;3025805;-64
2021/09/22 02:18:34;;;;;;;3.10;1.70;;;;;;;9.08;72.49;99200.56;27225;1218;3055351;-64
2021/09/22 02:21:09;;;;;;;4.20;2.40;;;;;;;9.67;71.31;99196.52;27203;1218;3027043;-69
2021/09/22 02:23:38;;;;;;;4.50;2.60;;;;;;;9.85;70.26;99201.35;27232;1218;3067974;-68
2021/09/22 02:26:27;;;;;;;4.60;2.70;;;;;;;9.74;70.27;99201.52;27211;1218;3048788;-68
2021/09/22 02:28:56;;;;;;;5.90;3.60;;;;;;;9.74;70.14;99205.89;27223;1218;3026126;-68
2021/09/22 02:31:25;;;;;;;3.80;2.60;;;;;;;9.30;71.25;99210.65;27221;1218;3027458;-67
2021/09/22 02:34:01;;;;;;;6.10;2.80;;;;;;;9.21;71.37;99213.94;27216;1217;3048769;-64
2021/09/22 02:36:30;;;;;;;5.30;2.70;;;;;;;9.09;72.14;99210.95;27186;1217;3026571;-64
2021/09/22 02:39:23;;;;;;;3.40;2.50;;;;;;;9.73;70.81;99208.91;27238;1218;3070701;-70
2021/09/22 02:42:07;;;;;;;5.80;2.60;;;;;;;9.65;70.54;99209.60;27241;1218;3051872;-69
2021/09/22 02:44:36;;;;;;;3.20;1.80;;;;;;;9.69;70.25;99214.94;27201;1218;3025977;-67
2021/09/22 02:47:05;;;;;;;4.00;2.70;;;;;;;9.54;70.14;99218.63;27190;1218;3066181;-64
2021/09/22 02:49:34;;;;;;;5.60;3.00;;;;;;;9.19;71.47;99212.16;27207;1217;3026788;-69
2021/09/22 02:52:06;;;;;;;3.60;2.80;;;;;;;8.91;72.70;99211.83;27227;1217;3053634;-65
2021/09/22 02:54:35;;;;;;;5.50;2.00;;;;;;;8.81;73.38;99214.53;27196;1217;3027190;-65
2021/09/22 02:57:44;;;;;;;2.70;1.70;;;;;;;9.62;71.49;99214.13;27212;1218;3049077;-68
2021/09/22 03:00:14;;;;;;;2.60;1.80;;;;;;;9.76;70.20;99211.53;27191;1218;3026104;-68
2021/09/22 03:02:43;;;;;;;3.70;1.70;;;;;;;9.57;70.94;99212.68;27238;1219;3026466;-66
2021/09/22 03:05:12;;;;;;;3.10;1.90;;;;;;;9.42;71.09;99208.70;27230;1218;3027021;-68
2021/09/22 03:07:42;;;;;;;3.90;2.10;;;;;;;9.28;71.41;99212.14;27241;1218;3051798;-63
2021/09/22 03:10:13;;;;;;;6.20;2.40;;;;;;;9.26;71.30;99212.77;27251;1218;3026002;-63
2021/09/22 03:12:43;;;;;;;4.00;1.60;;;;;;;9.06;72.41;99216.03;27196;1218;3026281;-68
2021/09/22 03:15:13;;;;;;;3.50;1.80;;;;;;;9.57;71.70;99218.66;27240;1217;3026362;-70
2021/09/22 03:17:43;;;;;;;3.60;1.80;;;;;;;9.76;70.32;99217.31;27197;1218;3026601;-68
2021/09/22 03:20:16;;;;;;;3.10;2.10;;;;;;;9.57;70.84;99214.98;27239;1217;3025952;-67
2021/09/22 03:22:49;;;;;;;4.00;2.40;;;;;;;9.46;71.06;99217.21;27252;1218;3069286;-63
2021/09/22 03:25:24;;;;;;;4.20;2.80;;;;;;;9.25;71.70;99220.04;27245;1217;3049346;-67
2021/09/22 03:28:13;;;;;;;3.40;2.00;;;;;;;8.89;72.98;99225.03;27227;1218;3052349;-66
2021/09/22 03:30:42;;;;;;;7.90;1.50;;;;;;;8.80;73.66;99222.96;27192;1209;3026284;-65
2021/09/22 03:33:15;;;;;;;3.90;1.80;;;;;;;9.64;72.02;99229.91;27236;1218;3026305;-68
2021/09/22 03:35:45;;;;;;;5.30;1.50;;;;;;;10.25;69.00;99229.84;27241;1217;3026024;-66
2021/09/22 03:38:16;;;;;;;3.80;2.10;;;;;;;9.96;69.37;99222.92;27188;1218;3026080;-70
2021/09/22 03:40:46;;;;;;;5.90;1.90;;;;;;;9.49;71.01;99224.88;27229;1218;3026502;-68
2021/09/22 03:43:16;;;;;;;3.20;1.90;;;;;;;9.37;71.11;99225.25;27199;1218;3026254;-68
2021/09/22 03:45:45;;;;;;;3.20;1.60;;;;;;;9.12;72.08;99221.80;27259;1218;3026008;-67
2021/09/22 03:48:14;;;;;;;1.90;1.30;;;;;;;8.99;72.51;99221.15;27269;1219;3050225;-70
2021/09/22 03:51:03;;;;;;;3.00;1.30;;;;;;;8.82;73.64;99216.89;27195;1218;3071252;-65
2021/09/22 03:53:39;;;;;;;2.80;1.40;;;;;;;9.39;72.65;99213.06;27220;1217;3048913;-68
2021/09/22 03:56:09;;;;;;;4.30;1.60;;;;;;;9.76;70.49;99211.20;27246;1218;3026378;-63
2021/09/22 03:58:38;;;;;;;3.30;1.80;;;;;;;9.75;70.42;99209.65;27188;1217;3068348;-66
2021/09/22 04:01:08;;;;;;;5.70;1.50;;;;;;;9.67;70.74;99208.08;27204;1218;3026550;-63
2021/09/22 04:03:38;;;;;;;3.20;2.00;;;;;;;9.58;70.62;99206.34;27249;1218;3026303;-64
2021/09/22 04:06:06;;;;;;;4.40;1.90;;;;;;;9.33;71.95;99210.46;27261;1218;3026590;-67
2021/09/22 04:08:36;;;;;;;7.70;1.90;;;;;;;9.30;71.65;99213.42;27220;1218;3048011;-63
2021/09/22 04:11:05;;;;;;;3.50;1.60;;;;;;;9.33;70.94;99218.28;27237;1210;3026098;-66
2021/09/22 04:13:36;;;;;;;2.80;1.10;;;;;;;9.22;71.96;99215.48;27220;1218;3070571;-69
2021/09/22 04:16:05;;;;;;;2.90;1.30;;;;;;;9.82;71.63;99214.70;27229;1219;3027063;-71
2021/09/22 04:18:34;;;;;;;5.30;1.60;;;;;;;10.49;68.87;99209.84;27196;1219;3050451;-65
2021/09/22 04:21:04;;;;;;;3.40;1.40;;;;;;;10.34;68.29;99213.52;27194;1218;3026406;-63
2021/09/22 04:23:33;;;;;;;4.50;1.80;;;;;;;10.14;68.61;99214.45;27181;1217;3029315;-67
2021/09/22 04:26:03;;;;;;;14.30;2.30;;;;;;;9.86;69.39;99218.13;27254;1217;3026230;-64
2021/09/22 04:28:33;;;;;;;5.30;1.90;;;;;;;9.56;70.52;99219.60;27356;1218;3026346;-66
2021/09/22 04:31:20;;;;;;;3.20;1.80;;;;;;;9.32;71.10;99225.17;27381;1218;3058683;-65
2021/09/22 04:34:09;;;;;;;4.30;1.50;;;;;;;9.21;72.08;99220.61;27343;1218;3051618;-67
2021/09/22 04:36:56;;;;;;;2.80;1.40;;;;;;;10.02;69.89;99217.48;27205;1218;3053285;-64
2021/09/22 04:39:45;;;;;;;5.60;2.00;;;;;;;10.60;68.04;99218.42;27215;1219;3053951;-67
2021/09/22 04:42:33;;;;;;;5.80;1.90;;;;;;;10.54;67.47;99213.02;27203;1220;3070647;-66
2021/09/22 04:45:22;;;;;;;6.40;2.20;;;;;;;10.24;68.06;99224.73;27231;1218;3048486;-66
2021/09/22 04:48:10;;;;;;;3.90;2.10;;;;;;;10.11;67.79;99223.89;27215;1218;3052045;-69
2021/09/22 04:50:58;;;;;;;4.30;2.30;;;;;;;9.69;69.31;99225.06;27274;1217;3054863;-66
2021/09/22 04:53:59;;;;;;;4.40;2.40;;;;;;;9.38;71.00;99223.98;27174;1218;3058596;-71
2021/09/22 04:56:48;;;;;;;6.20;2.20;;;;;;;9.05;72.74;99222.75;27244;1218;3049261;-66
2021/09/22 04:59:55;;;;;;;7.70;2.10;;;;;;;9.71;70.88;99222.13;27218;1219;3055285;-67
2021/09/22 05:02:43;;;;;;;7.90;2.60;;;;;;;9.96;69.94;99224.14;27192;1219;3054010;-68
2021/09/22 05:05:31;;;;;;;6.40;2.70;;;;;;;9.99;69.76;99220.98;27201;1217;3068714;-67
2021/09/22 05:08:21;;;;;;;8.30;3.30;;;;;;;9.76;70.20;99223.43;27217;1218;3051266;-72
2021/09/22 05:11:09;;;;;;;7.50;3.80;;;;;;;9.60;70.53;99222.30;27242;1218;3054107;-67
2021/09/22 05:14:08;;;;;;;9.60;3.90;;;;;;;9.40;71.03;99222.23;27244;1218;3054601;-67
2021/09/22 05:17:16;;;;;;;10.20;2.40;;;;;;;9.28;72.33;99222.42;27227;1219;3056250;-68
2021/09/22 05:20:04;;;;;;;8.40;3.20;;;;;;;10.13;70.17;99217.86;27259;1219;3049160;-66
2021/09/22 05:23:11;;;;;;;8.80;3.60;;;;;;;10.42;68.47;99213.23;27290;1218;3053001;-66
2021/09/22 05:25:59;;;;;;;6.80;3.30;;;;;;;10.14;69.31;99217.59;27229;1218;3051741;-69
2021/09/22 05:28:50;;;;;;;6.40;3.20;;;;;;;10.14;69.54;99217.78;27186;1217;3070598;-68
2021/09/22 05:31:38;;;;;;;7.10;4.30;;;;;;;9.95;70.44;99221.73;27226;1218;3048508;-68
2021/09/22 05:34:28;;;;;;;8.80;4.50;;;;;;;9.80;70.55;99220.77;27210;1218;3054318;-69
2021/09/22 05:37:27;;;;;;;5.10;3.10;;;;;;;9.59;70.87;99225.84;27234;1218;3054247;-70
2021/09/22 05:40:26;;;;;;;10.10;3.80;;;;;;;9.33;71.91;99231.26;27207;1219;3058219;-65
2021/09/22 05:43:14;;;;;;;5.40;2.70;;;;;;;9.23;72.37;99224.83;27266;1219;3049953;-70
2021/09/22 05:46:18;;;;;;;10.70;3.10;;;;;;;9.93;70.63;99221.19;27171;1225;3055492;-69
2021/09/22 05:49:06;;;;;;;8.90;3.40;;;;;;;10.34;68.55;99219.70;27233;1218;3053237;-65
2021/09/22 05:51:57;;;;;;;6.10;3.10;;;;;;;10.34;68.56;99220.40;27190;1218;3069494;-71
2021/09/22 05:54:48;;;;;;;6.10;3.00;;;;;;;10.29;68.06;99221.89;27201;1218;3048313;-68
2021/09/22 05:57:56;;;;;;;4.60;3.10;;;;;;;9.82;70.31;99221.82;27206;1217;3052181;-66
2021/09/22 06:00:44;;;;;;;5.90;3.30;;;;;;;9.75;69.90;99224.34;27198;1217;3054717;-62
2021/09/22 06:03:40;;;;;;;6.20;2.90;;;;;;;9.68;69.62;99226.92;27177;1222;3056272;-70
2021/09/22 06:06:28;;;;;;;4.00;2.20;;;;;;;9.55;70.77;99224.68;27223;1218;3049366;-68
2021/09/22 06:09:17;;;;;;;3.60;1.80;;;;;;;10.25;68.99;99224.98;27232;1217;3054898;-67
2021/09/22 06:12:18;;;;;;;2.90;1.80;;;;;;;10.56;67.41;99220.95;27211;1217;3051300;-68
2021/09/22 06:14:49;;;;;;;4.00;2.20;;;;;;;10.46;66.92;99219.65;27210;1218;3026438;-65
2021/09/22 06:17:27;;;;;;;2.50;1.40;;;;;;;9.93;68.42;99221.02;27193;1218;3051745;-73
2021/09/22 06:19:56;;;;;;;2.00;1.60;;;;;;;9.91;68.45;99224.45;27202;1219;3026483;-66
2021/09/22 06:22:41;;;;;;;3.70;2.10;;;;;;;9.78;68.43;99225.42;27199;1218;3055153;-68
2021/09/22 06:25:10;;;;;;;2.40;1.90;;;;;;;9.68;69.04;99225.34;27244;1218;3025697;-71
2021/09/22 06:27:40;;;;;;;2.50;1.70;;;;;;;9.65;69.78;99222.21;27293;1218;3026649;-70
2021/09/22 06:30:10;;;;;;;3.90;1.60;;;;;;;10.10;68.66;99223.29;27262;1209;3025871;-65
2021/09/22 06:32:40;;;;;;;3.60;2.00;;;;;;;10.74;66.51;99220.82;27237;1218;3025946;-72
2021/09/22 06:35:27;;;;;;;2.60;2.00;;;;;;;10.83;65.33;99223.56;27256;1219;3070367;-66
2021/09/22 06:38:06;;;;;;;4.60;1.70;;;;;;;10.67;65.20;99223.91;27212;1218;3047674;-66
2021/09/22 06:40:40;;;;;;;2.20;1.50;;;;;;;10.55;65.22;99228.17;27306;1219;3052263;-65
2021/09/22 06:43:09;;;;;;;3.10;2.10;;;;;;;10.33;65.30;99224.13;27204;1219;3028864;-67
2021/09/22 06:45:38;;;;;;;7.90;2.90;;;;;;;10.23;65.65;99219.84;27202;1218;3050383;-65
2021/09/22 06:48:09;;;;;;;5.90;2.60;;;;;;;10.18;65.77;99223.45;27259;1217;3026508;-66
2021/09/22 06:50:38;;;;;;;5.90;3.10;;;;;;;10.10;65.78;99226.58;27234;1219;3026512;-71
2021/09/22 06:53:08;;;;;;;7.00;3.40;;;;;;;10.10;65.87;99225.90;27251;1218;3047898;-68
2021/09/22 06:55:40;;;;;;;6.20;3.30;;;;;;;10.15;65.31;99229.25;27246;1218;3027204;-71
2021/09/22 06:58:09;;;;;;;7.40;3.80;;;;;;;10.18;65.09;99227.32;27231;1218;3027669;-68
2021/09/22 07:00:38;;;;;;;4.90;4.00;;;;;;;10.05;65.67;99233.02;27220;1217;3025989;-63
2021/09/22 07:03:11;;;;;;;4.60;3.50;;;;;;;10.09;65.18;99236.95;27204;1217;3026196;-68
2021/09/22 07:05:43;;;;;;;5.50;3.10;;;;;;;10.20;65.21;99238.08;27276;1217;3026247;-69
2021/09/22 07:08:13;;;;;;;4.50;2.30;;;;;;;10.89;63.68;99233.33;27266;1217;3028063;-70
2021/09/22 07:10:42;;;;;;;4.60;2.70;;;;;;;11.51;62.13;99227.84;27221;1218;3027946;-65
2021/09/22 07:13:12;;;;;;;6.20;2.90;;;;;;;11.54;61.14;99229.37;27216;1217;3025942;-65
2021/09/22 07:15:42;;;;;;;5.40;3.00;;;;;;;11.52;61.17;99232.87;27276;1218;3025902;-67
2021/09/22 07:18:15;;;;;;;7.20;3.20;;;;;;;11.37;61.27;99232.08;27247;1217;3067740;-65
2021/09/22 07:20:45;;;;;;;6.60;3.50;;;;;;;11.36;61.16;99232.33;27222;1217;3026903;-66
2021/09/22 07:23:15;;;;;;;7.00;4.70;;;;;;;11.22;61.39;99230.80;27227;1218;3025712;-62
2021/09/22 07:25:45;;;;;;;5.70;4.70;;;;;;;11.27;61.18;99233.14;27197;1218;3026641;-63
2021/09/22 07:28:14;;;;;;;7.90;5.10;;;;;;;11.05;61.24;99232.95;27218;1217;3026204;-66
2021/09/22 07:30:46;;;;;;;8.60;4.70;;;;;;;10.70;62.63;99229.28;27261;1219;3053074;-68
2021/09/22 07:33:16;;;;;;;4.60;3.00;;;;;;;10.77;62.56;99231.09;27247;1218;3025575;-66
2021/09/22 07:35:47;;;;;;;3.90;2.90;;;;;;;10.72;62.45;99228.52;27269;1219;3026043;-63
2021/09/22 07:38:16;;;;;;;6.70;3.40;;;;;;;10.68;62.89;99228.73;27241;1218;3052977;-69
2021/09/22 07:40:46;;;;;;;3.60;3.00;;;;;;;10.63;63.05;99232.01;27252;1218;3026035;-68
2021/09/22 07:43:15;;;;;;;4.00;3.30;;;;;;;10.64;62.72;99227.58;27230;1217;3025891;-69
2021/09/22 07:45:45;;;;;;;5.10;3.40;;;;;;;10.69;62.19;99223.44;27192;1218;3026782;-67
2021/09/22 07:48:14;;;;;;;4.90;3.40;;;;;;;10.58;62.77;99229.20;27249;1219;3053909;-69
2021/09/22 07:51:03;;;;;;;7.10;3.10;;;;;;;10.57;62.41;99223.67;27216;1219;3058844;-67
2021/09/22 07:53:33;;;;;;;4.10;3.10;;;;;;;10.46;63.12;99220.37;27184;1218;3026546;-65
2021/09/22 07:56:04;;;;;;;8.40;3.20;;;;;;;10.44;63.48;99218.92;27207;1218;3026087;-66
2021/09/22 07:58:33;;;;;;;2.90;2.30;;;;;;;10.53;63.70;99218.84;27210;1218;3026596;-66
2021/09/22 08:01:02;;;;;;;2.80;2.40;;;;;;;10.64;62.69;99220.63;27200;1216;3027409;-66
2021/09/22 08:03:31;;;;;;;3.70;3.10;;;;;;;10.62;62.72;99218.27;27205;1219;3051774;-70
2021/09/22 08:06:00;;;;;;;6.50;3.40;;;;;;;10.61;63.20;99218.13;27193;1218;3026286;-69
2021/09/22 08:08:29;;;;;;;3.90;2.80;;;;;;;10.68;62.81;99213.80;27223;1218;3027439;-65
2021/09/22 08:10:58;;;;;;;3.80;2.40;;;;;;;10.89;62.06;99218.08;27225;1219;3054137;-64
2021/09/22 08:13:27;;;;;;;4.80;2.60;;;;;;;10.88;62.22;99214.67;27262;1219;3027695;-65
2021/09/22 08:15:55;;;;;;;5.20;2.80;;;;;;;10.77;62.35;99214.67;27201;1218;3047535;-69
2021/09/22 08:18:24;;;;;;;3.40;2.50;;;;;;;10.86;62.08;99209.34;27243;1217;3026494;-66
2021/09/22 08:20:53;;;;;;;4.30;2.50;;;;;;;10.96;61.84;99205.55;27259;1218;3054840;-70
2021/09/22 08:23:23;;;;;;;4.90;2.80;;;;;;;11.01;61.78;99204.90;27234;1219;3026420;-68
2021/09/22 08:25:53;;;;;;;3.10;2.40;;;;;;;11.03;61.56;99207.89;27200;1217;3026510;-66
2021/09/22 08:28:22;;;;;;;4.10;2.40;;;;;;;11.03;61.63;99203.85;27184;1218;3027935;-63
2021/09/22 08:30:51;;;;;;;3.30;2.30;;;;;;;11.02;61.24;99203.05;27195;1219;3025834;-65
2021/09/22 08:33:20;;;;;;;3.80;2.70;;;;;;;10.99;61.48;99211.66;27219;1218;3055682;-63
2021/09/22 08:35:49;;;;;;;5.20;3.00;;;;;;;10.95;61.35;99206.79;27168;1218;3027364;-68
2021/09/22 08:38:18;;;;;;;5.50;3.10;;;;;;;10.95;61.28;99202.27;27178;1219;3048777;-68
2021/09/22 08:40:47;;;;;;;8.00;5.00;;;;;;;10.92;61.54;99208.23;27252;1218;3026251;-69
2021/09/22 08:43:17;;;;;;;5.60;3.80;;;;;;;10.90;61.72;99208.92;27232;1219;3026458;-67
2021/09/22 08:45:47;;;;;;;5.90;3.70;;;;;;;10.81;61.79;99206.91;27241;1219;3026426;-68
2021/09/22 08:48:16;;;;;;;4.80;3.90;;;;;;;10.77;62.09;99202.74;27177;1218;3026139;-65
2021/09/22 08:53:39;;;;;;;5.40;3.80;;;;;;;10.67;62.38;99202.85;34408;1219;3027851;-69
2021/09/22 08:56:10;;;;;;;10.20;5.90;;;;;;;11.04;61.57;99203.07;27192;1218;3026384;-69
2021/09/22 08:58:39;;;;;;;5.10;3.90;;;;;;;11.39;60.13;99200.55;27265;1219;3027754;-67
2021/09/22 09:01:13;;;;;;;7.00;4.90;;;;;;;11.32;60.01;99202.62;27213;1217;3026671;-67
2021/09/22 09:03:43;;;;;;;7.40;4.40;;;;;;;11.25;60.08;99197.81;27226;1215;3054932;-67
2021/09/22 09:06:19;;;;;;;6.50;4.30;;;;;;;11.08;61.46;99200.69;27246;1215;3026957;-64
2021/09/22 09:08:52;;;;;;;7.90;4.90;;;;;;;10.79;65.70;99208.25;27216;1216;3049974;-66
2021/09/22 09:11:32;;;;;;;6.70;3.80;;;;;;;10.52;67.26;99208.56;27279;1215;3026219;-66
2021/09/22 09:14:06;;;;;;;6.70;2.80;;;;;;;11.02;66.62;99204.58;27238;1217;3052968;-67
2021/09/22 09:16:40;;;;;;;7.20;3.40;;;;;;;11.49;64.69;99206.52;27248;1217;3056569;-68
2021/09/22 09:19:18;;;;;;;7.20;3.50;;;;;;;11.38;63.90;99200.79;27198;1217;3049606;-66
2021/09/22 09:22:00;;;;;;;12.40;4.10;;;;;;;11.27;63.81;99202.07;27247;1217;3054679;-68
2021/09/22 09:24:37;;;;;;;10.40;4.80;;;;;;;11.05;63.82;99200.02;27239;1218;3026474;-65
2021/09/22 09:27:14;;;;;;;;;;;;;;;10.99;64.16;99199.40;27241;1215;3070381;-66
2021/09/22 09:29:43;;;;;;;9.20;4.00;;;;;;;11.02;64.02;99202.00;27234;1215;3026464;-68
2021/09/22 09:32:18;;;;;;;8.00;3.80;;;;;;;10.99;63.37;99201.33;27249;1215;3053220;-69
2021/09/22 09:35:04;;;;;;;5.60;3.50;;;;;;;10.86;62.86;99206.35;27220;1215;3068624;-65
2021/09/22 09:37:45;;;;;;;7.30;3.20;;;;;;;10.97;62.78;99200.05;27217;1215;3051492;-66
2021/09/22 09:40:32;;;;;;;5.90;3.90;;;;;;;10.82;62.71;99195.95;27231;1216;3054081;-69
2021/09/22 09:43:04;;;;;;;7.30;3.40;;;;;;;10.69;63.22;99197.33;27203;1215;3051858;-66
2021/09/22 09:45:36;;;;;;;4.00;2.50;;;;;;;10.54;63.69;99202.15;27253;1215;3025906;-65
2021/09/22 09:48:17;;;;;;;7.70;3.00;;;;;;;10.45;64.03;99204.33;27215;1215;3026298;-69
2021/09/22 09:51:06;;;;;;;8.60;2.90;;;;;;;10.64;63.70;99205.73;27232;1216;3053917;-65
2021/09/22 09:54:06;;;;;;;5.40;2.80;;;;;;;10.53;63.87;99206.09;27254;1216;3051379;-66
2021/09/22 09:56:35;;;;;;;4.10;2.70;;;;;;;10.63;63.51;99212.44;27200;1215;3070874;-64
2021/09/22 09:59:04;;;;;;;3.80;3.10;;;;;;;10.51;63.67;99216.85;27222;1215;3028078;-65
2021/09/22 10:01:43;;;;;;;5.20;2.90;;;;;;;10.55;63.76;99218.17;27228;1215;3051719;-66
2021/09/22 10:04:17;;;;;;;9.70;3.90;;;;;;;10.63;63.72;99216.27;27244;1216;3026486;-69
2021/09/22 10:06:47;;;;;;;6.10;3.20;;;;;;;10.62;63.54;99221.10;27258;1215;3047904;-65
2021/09/22 10:09:16;;;;;;;6.40;3.30;;;;;;;10.57;63.85;99223.30;27258;1215;3028149;-68
2021/09/22 10:12:05;;;;;;;6.30;3.50;;;;;;;10.63;63.68;99217.33;27198;1218;3052601;-70
2021/09/22 10:14:35;;;;;;;7.20;3.80;;;;;;;10.65;63.40;99213.73;27229;1215;3028259;-68
2021/09/22 10:17:24;;;;;;;4.20;3.10;;;;;;;10.69;63.30;99214.61;27202;1216;3049738;-67
2021/09/22 10:20:12;;;;;;;5.90;3.60;;;;;;;10.76;63.47;99210.92;27196;1217;3054866;-70
2021/09/22 10:23:00;;;;;;;4.90;3.40;;;;;;;10.80;63.33;99212.18;27256;1216;3050501;-69
2021/09/22 10:25:29;;;;;;;8.00;3.40;;;;;;;10.88;62.66;99210.29;27212;1209;3028099;-66
2021/09/22 10:27:58;;;;;;;8.60;3.20;;;;;;;10.98;62.63;99206.96;27253;1215;3051690;-65
2021/09/22 10:30:44;;;;;;;9.80;3.60;;;;;;;10.99;62.82;99210.77;27253;1209;3026125;-63
2021/09/22 10:33:32;;;;;;;6.70;3.50;;;;;;;11.00;63.07;99204.02;27281;1215;3048965;-66
2021/09/22 10:36:04;;;;;;;6.70;3.60;;;;;;;10.94;63.13;99205.48;27261;1216;3054985;-68
2021/09/22 10:38:44;;;;;;;5.80;3.70;;;;;;;10.89;63.36;99207.25;27302;1215;3026066;-66
2021/09/22 10:41:27;;;;;;;6.90;3.90;;;;;;;10.94;63.10;99202.69;27306;1215;3070441;-65
2021/09/22 10:44:36;;;;;;;9.10;3.80;;;;;;;10.91;63.48;99206.57;27284;1216;3048950;-67
2021/09/22 10:47:21;;;;;;;9.10;3.90;;;;;;;10.95;63.54;99204.04;27242;1215;3054692;-65
2021/09/22 10:49:51;;;;;;;9.80;4.10;;;;;;;10.99;63.50;99199.59;27229;1215;3053454;-66
2021/09/22 10:52:37;;;;;;;9.80;4.00;;;;;;;10.99;63.18;99194.27;27250;1215;3026820;-68
2021/09/22 10:55:22;;;;;;;11.10;4.20;;;;;;;11.00;63.73;99196.00;27223;1215;3055099;-67
2021/09/22 10:58:12;;;;;;;11.30;4.00;;;;;;;11.02;63.91;99197.96;27243;1215;3054570;-65
2021/09/22 11:00:43;;;;;;;7.00;4.00;;;;;;;11.05;64.36;99198.27;27221;1215;3058305;-67
2021/09/22 11:03:14;;;;;;;7.30;4.20;;;;;;;11.11;63.60;99197.55;27257;1215;3025872;-66
2021/09/22 11:05:45;;;;;;;7.10;4.20;;;;;;;11.14;63.52;99201.03;27227;1216;3029379;-65
2021/09/22 11:08:16;;;;;;;7.90;5.10;;;;;;;11.08;63.89;99199.83;27254;1215;3027230;-69
2021/09/22 11:10:56;;;;;;;8.60;5.00;;;;;;;11.12;63.93;99195.92;27231;1217;3069911;-69
2021/09/22 11:13:34;;;;;;;7.30;4.00;;;;;;;11.15;63.62;99194.11;27251;1217;3025805;-67
2021/09/22 11:16:25;;;;;;;9.70;4.10;;;;;;;11.10;63.38;99190.29;27266;1217;3054753;-66
2021/09/22 11:19:16;;;;;;;10.40;5.20;;;;;;;11.15;63.53;99195.66;27326;1217;3052243;-69
2021/09/22 11:21:48;;;;;;;14.20;5.80;;;;;;;11.18;63.84;99192.17;27310;1215;3058676;-68
2021/09/22 11:24:21;;;;;;;9.90;5.50;;;;;;;11.22;63.56;99189.06;27235;1215;3029676;-69
2021/09/22 11:26:50;;;;;;;13.10;5.70;;;;;;;11.28;62.85;99186.73;27233;1216;3028239;-67
2021/09/22 11:29:48;;;;;;;11.80;5.90;;;;;;;11.32;63.29;99184.58;27214;1216;3028192;-66
2021/09/22 11:32:44;;;;;;;8.40;5.70;;;;;;;11.23;63.46;99184.79;27186;1217;3070501;-67
2021/09/22 11:35:15;;;;;;;9.40;5.20;;;;;;;11.19;63.59;99185.09;27233;1217;3052918;-68
2021/09/22 11:37:46;;;;;;;12.60;4.50;;;;;;;11.14;63.64;99180.30;27223;1217;3026610;-64
2021/09/22 11:40:30;;;;;;;7.00;4.90;;;;;;;11.12;63.83;99179.60;27214;1215;3026512;-63
2021/09/22 11:43:17;;;;;;;13.40;5.10;;;;;;;11.12;64.18;99183.41;27225;1215;3058855;-66
2021/09/22 11:45:49;;;;;;;8.50;5.20;;;;;;;11.14;64.24;99180.17;27250;1215;3048535;-64
2021/09/22 11:48:25;;;;;;;12.70;6.50;;;;;;;11.12;64.73;99176.27;27252;1217;3027095;-68
2021/09/22 11:51:04;;;;;;;14.30;6.10;;;;;;;11.06;64.83;99179.84;27258;1217;3051878;-64
2021/09/22 11:53:44;;;;;;;13.80;6.70;;;;;;;10.87;65.62;99182.81;27198;1217;3070662;-65
2021/09/22 11:56:14;;;;;;;11.40;6.80;;;;;;;10.91;65.67;99182.55;27221;1217;3026432;-69
2021/09/22 11:59:03;;;;;;;8.90;5.00;;;;;;;11.02;65.30;99180.77;27201;1217;3052227;-67
2021/09/22 12:01:33;;;;;;;8.70;5.10;;;;;;;11.72;63.92;99177.40;27247;1217;3026007;-68
2021/09/22 12:04:02;;;;;;;9.20;5.20;;;;;;;12.36;61.11;99177.83;27254;1215;3028239;-65
2021/09/22 12:06:31;;;;;;;12.80;5.20;;;;;;;12.54;60.75;99173.87;27229;1215;3053761;-66